Time;durP1;ratioP1;P1;durP2;ratioP2;P2;SDS_P1;SDS_P2;PMS_P1;PMS_P2;Temp;Humidity;BMP_temperature;BMP_pressure;BME280_temperature;BME280_humidity;BME280_pressure;Samples;Min_cycle;Max_cycle;Signal;HPM_P1;HPM_P2
2021/05/24 00:02:05;;;;;;;3.53;1.20;;;;;;;11.60;76.59;99590.88;5056473;28;20080;-78
2021/05/24 00:04:31;;;;;;;3.45;1.42;;;;;;;11.58;76.20;99593.16;4991431;28;20040;-78
2021/05/24 00:06:56;;;;;;;5.18;1.60;;;;;;;11.57;76.87;99584.00;5024606;28;20029;-78
2021/05/24 00:09:22;;;;;;;3.00;1.40;;;;;;;11.50;76.36;99580.84;5040953;28;20033;-78
2021/05/24 00:11:50;;;;;;;2.67;1.40;;;;;;;11.50;76.81;99575.28;5022251;28;20025;-78
2021/05/24 00:14:18;;;;;;;2.42;1.42;;;;;;;11.44;77.05;99576.59;5055897;28;20098;-78
2021/05/24 00:16:44;;;;;;;2.72;1.25;;;;;;;11.41;76.84;99596.69;5039361;28;20041;-78
2021/05/24 00:19:09;;;;;;;3.88;1.50;;;;;;;11.41;76.96;99572.50;5056347;28;20083;-77
2021/05/24 00:21:35;;;;;;;3.30;1.40;;;;;;;11.38;76.63;99600.94;5022977;28;20068;-77
2021/05/24 00:24:00;;;;;;;2.75;1.38;;;;;;;11.40;77.09;99592.28;5034217;28;20029;-77
2021/05/24 00:26:26;;;;;;;2.85;1.23;;;;;;;11.36;76.90;99603.22;5034819;28;20035;-77
2021/05/24 00:28:52;;;;;;;3.72;1.30;;;;;;;11.32;76.83;99599.44;5012229;28;20501;-77
2021/05/24 00:31:18;;;;;;;2.90;1.45;;;;;;;11.31;77.23;99597.81;5058444;28;20056;-78
2021/05/24 00:33:44;;;;;;;1.80;1.02;;;;;;;11.28;77.35;99601.25;5055907;28;20029;-78
2021/05/24 00:36:09;;;;;;;2.40;1.20;;;;;;;11.28;76.98;99583.72;5039026;28;20083;-77
2021/05/24 00:38:35;;;;;;;2.25;1.25;;;;;;;11.28;76.77;99598.47;5034550;28;20555;-77
2021/05/24 00:41:00;;;;;;;3.00;1.23;;;;;;;11.22;77.25;99588.59;5021058;28;20034;-77
2021/05/24 00:43:26;;;;;;;2.55;1.13;;;;;;;11.19;77.02;99559.50;5017422;28;20033;-77
2021/05/24 00:45:51;;;;;;;2.45;1.20;;;;;;;11.20;76.77;99579.78;5034982;28;20295;-78
2021/05/24 00:48:17;;;;;;;2.50;1.15;;;;;;;11.19;76.87;99580.91;5031231;28;20090;-77
2021/05/24 00:50:42;;;;;;;3.17;1.20;;;;;;;11.10;77.27;99561.44;5052232;28;20028;-77
2021/05/24 00:53:08;;;;;;;3.03;1.25;;;;;;;11.07;77.42;99578.75;5054408;28;20028;-78
2021/05/24 00:55:33;;;;;;;3.78;1.30;;;;;;;11.07;77.58;99584.31;5011564;28;20087;-78
2021/05/24 00:57:59;;;;;;;3.35;1.10;;;;;;;11.06;77.46;99581.84;5038692;28;20048;-78
2021/05/24 01:00:42;;;;;;;2.75;1.10;;;;;;;11.05;77.54;99569.09;5037766;28;20025;-77
2021/05/24 01:03:08;;;;;;;5.00;1.27;;;;;;;11.01;77.16;99566.13;5029676;28;20097;-78
2021/05/24 01:05:35;;;;;;;2.95;1.25;;;;;;;11.00;77.51;99555.34;5022200;28;20021;-78
2021/05/24 01:08:01;;;;;;;3.92;1.20;;;;;;;11.00;77.78;99544.22;5043723;28;20036;-77
2021/05/24 01:10:26;;;;;;;1.88;1.00;;;;;;;10.97;77.39;99537.34;5069909;28;20474;-77
2021/05/24 01:12:52;;;;;;;1.35;0.98;;;;;;;10.95;77.20;99562.69;5068248;28;20037;-78
2021/05/24 01:15:17;;;;;;;4.88;1.40;;;;;;;10.93;77.87;99564.94;5038718;28;20033;-78
2021/05/24 01:17:43;;;;;;;4.55;0.95;;;;;;;10.90;77.86;99562.81;5051548;28;20477;-78
2021/05/24 01:20:09;;;;;;;3.63;1.05;;;;;;;10.89;77.07;99565.91;5044252;28;20036;-78
2021/05/24 01:22:37;;;;;;;3.15;1.10;;;;;;;10.88;77.49;99570.63;5021399;28;20025;-78
2021/05/24 01:25:06;;;;;;;2.97;1.15;;;;;;;10.85;77.53;99574.06;5035543;28;20029;-77
2021/05/24 01:27:32;;;;;;;3.88;1.10;;;;;;;10.86;77.53;99563.75;5038696;28;20059;-78
2021/05/24 01:29:58;;;;;;;2.58;0.95;;;;;;;10.82;77.68;99566.38;5055320;28;20512;-78
2021/05/24 01:32:24;;;;;;;3.10;1.23;;;;;;;10.80;77.77;99574.19;5009891;28;20103;-78
2021/05/24 01:34:49;;;;;;;1.80;1.02;;;;;;;10.81;77.95;99566.66;5027623;28;20040;-78
2021/05/24 01:37:15;;;;;;;2.22;1.10;;;;;;;10.77;78.29;99565.69;5033563;28;20021;-77
2021/05/24 01:39:40;;;;;;;4.80;1.35;;;;;;;10.78;77.68;99579.25;5022483;28;20044;-77
2021/05/24 01:42:06;;;;;;;3.45;1.10;;;;;;;10.77;78.23;99574.00;5048495;28;20397;-78
2021/05/24 01:44:33;;;;;;;2.78;0.98;;;;;;;10.75;77.65;99571.53;5015308;28;20099;-77
2021/05/24 01:46:58;;;;;;;4.85;1.27;;;;;;;10.70;78.77;99580.84;5038284;28;20051;-78
2021/05/24 01:49:24;;;;;;;2.13;1.08;;;;;;;10.68;77.95;99579.53;5052450;28;20028;-77
2021/05/24 01:51:50;;;;;;;3.30;1.05;;;;;;;10.70;78.50;99555.03;5035889;28;20017;-77
2021/05/24 01:54:16;;;;;;;2.67;1.20;;;;;;;10.71;77.89;99553.88;5047778;28;20041;-77
2021/05/24 01:56:41;;;;;;;3.40;1.15;;;;;;;10.67;78.59;99542.59;5012837;28;20033;-77
2021/05/24 01:59:08;;;;;;;2.15;1.20;;;;;;;10.67;77.75;99522.31;5036348;28;20033;-76
2021/05/24 02:01:33;;;;;;;2.60;1.20;;;;;;;10.66;78.18;99532.63;5035276;28;20106;-78
2021/05/24 02:03:59;;;;;;;3.20;1.48;;;;;;;10.63;77.89;99557.44;5050069;28;20037;-78
2021/05/24 02:06:24;;;;;;;2.67;1.20;;;;;;;10.64;78.18;99561.84;5053666;28;20026;-78
2021/05/24 02:08:50;;;;;;;3.03;1.20;;;;;;;10.63;78.08;99552.69;5035403;28;20036;-78
2021/05/24 02:11:15;;;;;;;3.17;1.00;;;;;;;10.64;78.45;99547.97;5002521;28;20474;-78
2021/05/24 02:13:44;;;;;;;2.50;1.20;;;;;;;10.64;78.38;99536.84;5034854;28;20044;-78
2021/05/24 02:16:10;;;;;;;6.30;1.20;;;;;;;10.59;78.33;99562.00;5053592;28;20025;-78
2021/05/24 02:18:35;;;;;;;5.05;1.48;;;;;;;10.60;77.66;99564.44;5040927;28;20029;-78
2021/05/24 02:21:02;;;;;;;2.92;1.10;;;;;;;10.57;78.56;99553.16;5027000;28;20069;-78
2021/05/24 02:23:28;;;;;;;2.08;1.30;;;;;;;10.56;78.54;99576.50;5061376;28;20021;-77
2021/05/24 02:25:53;;;;;;;2.78;1.02;;;;;;;10.55;78.32;99572.09;5021995;28;20044;-77
2021/05/24 02:28:19;;;;;;;2.85;1.20;;;;;;;10.56;78.81;99557.06;5022686;28;20091;-78
2021/05/24 02:30:44;;;;;;;2.92;1.40;;;;;;;10.57;78.28;99558.72;5016491;28;20028;-78
2021/05/24 02:33:10;;;;;;;4.50;1.10;;;;;;;10.55;78.51;99550.69;4986429;28;20036;-77
2021/05/24 02:35:35;;;;;;;3.97;1.40;;;;;;;10.56;78.96;99557.06;5035860;28;20025;-78
2021/05/24 02:38:01;;;;;;;1.90;1.02;;;;;;;10.56;78.50;99576.50;5037298;28;20033;-77
2021/05/24 02:40:27;;;;;;;2.40;1.17;;;;;;;10.57;78.91;99572.59;5046422;28;20049;-77
2021/05/24 02:42:53;;;;;;;2.17;1.33;;;;;;;10.54;78.68;99560.16;5044228;28;20025;-78
2021/05/24 02:45:19;;;;;;;5.00;1.60;;;;;;;10.55;79.37;99561.78;5019802;28;20033;-77
2021/05/24 02:47:45;;;;;;;2.70;1.20;;;;;;;10.53;78.84;99541.88;5055207;28;20114;-77
2021/05/24 02:50:12;;;;;;;3.70;1.35;;;;;;;10.55;78.72;99549.88;5037122;28;20029;-77
2021/05/24 02:52:37;;;;;;;4.97;1.40;;;;;;;10.55;79.22;99549.88;5041554;28;20033;-77
2021/05/24 02:55:04;;;;;;;6.65;1.40;;;;;;;10.55;79.13;99559.00;5071261;28;20035;-77
2021/05/24 02:57:29;;;;;;;3.40;1.30;;;;;;;10.55;78.69;99556.25;5040825;28;20037;-77
2021/05/24 02:59:55;;;;;;;2.58;1.08;;;;;;;10.56;79.25;99576.50;5066472;28;20046;-77
2021/05/24 03:02:28;;;;;;;5.50;1.40;;;;;;;10.58;78.69;99568.66;5039525;28;20048;-76
2021/05/24 03:04:53;;;;;;;4.30;1.52;;;;;;;10.56;79.23;99565.38;5025969;28;20504;-77
2021/05/24 03:07:19;;;;;;;8.80;1.75;;;;;;;10.57;79.55;99565.06;5069379;28;20036;-76
2021/05/24 03:09:44;;;;;;;3.42;1.40;;;;;;;10.57;79.25;99565.06;5036631;28;20041;-77
2021/05/24 03:12:10;;;;;;;4.65;1.55;;;;;;;10.58;79.14;99566.72;5025051;28;20028;-76
2021/05/24 03:14:35;;;;;;;5.43;1.27;;;;;;;10.59;79.12;99564.78;5053102;28;20028;-77
2021/05/24 03:17:01;;;;;;;4.00;1.50;;;;;;;10.58;79.38;99566.72;5043128;28;20068;-77
2021/05/24 03:19:26;;;;;;;4.78;1.70;;;;;;;10.58;78.34;99557.56;5041533;28;20071;-77
2021/05/24 03:21:52;;;;;;;4.20;1.45;;;;;;;10.58;79.07;99563.13;5055546;28;20048;-76
2021/05/24 03:24:18;;;;;;;3.72;1.58;;;;;;;10.56;79.52;99554.28;5040715;28;20043;-78
2021/05/24 03:26:43;;;;;;;6.43;2.17;;;;;;;10.54;80.30;99564.91;5036981;28;20029;-77
2021/05/24 03:29:08;;;;;;;4.90;1.80;;;;;;;10.54;80.00;99560.16;5035619;28;20033;-77
2021/05/24 03:31:34;;;;;;;4.45;1.95;;;;;;;10.55;79.49;99552.66;5057163;28;20035;-76
2021/05/24 03:34:00;;;;;;;8.63;2.50;;;;;;;10.55;79.55;99560.97;5034146;28;20432;-76
2021/05/24 03:36:25;;;;;;;4.88;2.30;;;;;;;10.50;79.58;99562.75;5040370;28;20087;-77
2021/05/24 03:38:51;;;;;;;5.32;2.20;;;;;;;10.54;78.74;99553.78;5037595;28;20053;-77
2021/05/24 03:41:17;;;;;;;4.45;1.70;;;;;;;10.50;79.05;99550.81;5051821;28;20155;-77
2021/05/24 03:43:44;;;;;;;5.45;2.05;;;;;;;10.48;79.70;99553.91;5023536;28;20064;-78
2021/05/24 03:46:10;;;;;;;4.55;1.88;;;;;;;10.47;79.81;99566.19;5035724;28;20025;-77
2021/05/24 03:48:37;;;;;;;6.75;2.13;;;;;;;10.44;79.14;99560.41;5054159;28;20034;-78
2021/05/24 03:51:03;;;;;;;4.50;1.65;;;;;;;10.43;79.41;99559.59;5069150;28;20108;-78
2021/05/24 03:53:29;;;;;;;5.10;1.65;;;;;;;10.44;79.61;99563.19;5070613;28;20543;-77
2021/05/24 03:55:55;;;;;;;6.18;1.95;;;;;;;10.40;79.11;99565.78;5038478;28;20033;-77
2021/05/24 03:58:20;;;;;;;6.05;2.10;;;;;;;10.41;80.47;99566.59;5051041;28;20029;-78
2021/05/24 04:00:46;;;;;;;5.75;1.95;;;;;;;10.41;79.64;99561.88;5057843;28;20123;-77
2021/05/24 04:03:11;;;;;;;5.95;2.00;;;;;;;10.40;79.72;99548.31;5043599;28;20060;-77
2021/05/24 04:05:39;;;;;;;4.63;1.60;;;;;;;10.38;80.12;99559.72;5063124;28;20032;-77
2021/05/24 04:08:06;;;;;;;5.32;1.83;;;;;;;10.38;80.52;99561.69;5057931;28;20029;-77
2021/05/24 04:10:35;;;;;;;7.70;1.77;;;;;;;10.36;80.94;99559.22;5041355;28;20025;-77
2021/05/24 04:13:01;;;;;;;6.20;2.03;;;;;;;10.33;80.73;99559.84;5049233;28;20024;-78
2021/05/24 04:15:26;;;;;;;8.68;2.22;;;;;;;10.32;80.71;99561.00;5058579;28;20040;-78
2021/05/24 04:17:56;;;;;;;9.18;1.98;;;;;;;10.29;80.82;99561.63;5057919;28;20056;-77
2021/05/24 04:20:23;;;;;;;8.07;2.10;;;;;;;10.31;81.03;99561.28;5073587;28;20096;-77
2021/05/24 04:22:48;;;;;;;10.10;2.20;;;;;;;10.28;80.25;99568.31;5046877;28;20358;-77
2021/05/24 04:25:14;;;;;;;8.10;2.17;;;;;;;10.28;81.12;99568.31;5098561;28;20031;-77
2021/05/24 04:27:39;;;;;;;7.13;2.00;;;;;;;10.28;80.51;99560.00;5078528;28;20049;-77
2021/05/24 04:30:06;;;;;;;6.70;1.88;;;;;;;10.33;81.07;99570.13;5045631;28;20032;-77
2021/05/24 04:32:32;;;;;;;5.43;1.80;;;;;;;10.30;80.61;99571.56;5063842;28;20408;-78
2021/05/24 04:34:57;;;;;;;8.38;2.10;;;;;;;10.30;80.42;99571.56;5042396;28;20031;-77
2021/05/24 04:37:23;;;;;;;9.20;2.15;;;;;;;10.28;80.78;99566.34;5067970;28;20033;-77
2021/05/24 04:39:48;;;;;;;9.77;2.28;;;;;;;10.32;80.27;99572.09;5079510;28;20044;-77
2021/05/24 04:42:14;;;;;;;7.22;2.05;;;;;;;10.29;81.25;99569.94;5046667;28;20029;-78
2021/05/24 04:44:40;;;;;;;6.38;1.90;;;;;;;10.29;80.47;99573.53;5047283;28;20088;-77
2021/05/24 04:47:06;;;;;;;8.18;1.60;;;;;;;10.32;81.11;99561.00;5066405;28;20550;-77
2021/05/24 04:49:31;;;;;;;6.95;1.80;;;;;;;10.29;81.19;99568.00;5066824;28;20036;-76
2021/05/24 04:52:00;;;;;;;6.55;2.03;;;;;;;10.31;80.76;99566.84;5098054;28;21132;-77
2021/05/24 04:54:26;;;;;;;7.60;2.20;;;;;;;10.32;80.87;99569.31;5041895;28;20033;-78
2021/05/24 04:56:52;;;;;;;7.75;2.13;;;;;;;10.29;80.60;99573.53;5050688;28;20036;-77
2021/05/24 04:59:17;;;;;;;8.30;2.05;;;;;;;10.33;80.47;99570.94;5081991;28;20545;-78
2021/05/24 05:01:43;;;;;;;8.18;2.30;;;;;;;10.33;80.63;99573.72;5064964;28;20040;-77
2021/05/24 05:04:08;;;;;;;5.03;1.90;;;;;;;10.34;80.65;99582.91;5066640;28;20024;-78
2021/05/24 05:06:34;;;;;;;10.10;1.90;;;;;;;10.36;80.81;99575.88;5038912;28;20028;-77
2021/05/24 05:08:59;;;;;;;7.90;1.83;;;;;;;10.37;79.95;99583.06;5048393;28;20041;-78
2021/05/24 05:11:25;;;;;;;4.65;1.67;;;;;;;10.38;80.74;99584.69;5041388;28;20484;-78
2021/05/24 05:13:50;;;;;;;10.63;1.67;;;;;;;10.42;81.07;99591.28;5028092;28;20024;-78
2021/05/24 05:16:16;;;;;;;9.63;2.05;;;;;;;10.40;81.02;99595.50;5064315;28;20435;-78
2021/05/24 05:18:41;;;;;;;6.20;1.83;;;;;;;10.45;80.96;99595.38;5047826;28;20035;-78
2021/05/24 05:21:06;;;;;;;8.30;1.83;;;;;;;10.43;80.11;99595.69;5072527;28;20041;-78
2021/05/24 05:23:32;;;;;;;6.13;2.08;;;;;;;10.41;80.39;99586.03;5081322;28;20057;-78
2021/05/24 05:25:57;;;;;;;6.97;1.83;;;;;;;10.41;80.81;99594.34;5056379;28;20039;-78
2021/05/24 05:28:24;;;;;;;8.65;2.25;;;;;;;10.43;80.79;99592.91;5082564;28;20032;-78
2021/05/24 05:30:50;;;;;;;9.77;2.30;;;;;;;10.44;80.47;99602.06;5094436;28;20110;-78
2021/05/24 05:33:16;;;;;;;8.88;2.05;;;;;;;10.46;80.71;99592.28;5042537;28;20480;-78
2021/05/24 05:35:46;;;;;;;6.57;1.58;;;;;;;10.47;81.20;99596.72;5064332;28;20199;-78
2021/05/24 05:38:12;;;;;;;7.38;2.20;;;;;;;10.51;81.28;99594.94;5065899;28;20024;-78
2021/05/24 05:40:38;;;;;;;8.52;2.13;;;;;;;10.53;82.54;99597.41;5027918;28;20040;-78
2021/05/24 05:43:03;;;;;;;8.85;1.95;;;;;;;10.62;83.98;99594.69;5098015;28;20518;-78
2021/05/24 05:45:29;;;;;;;8.45;2.53;;;;;;;10.72;83.89;99589.66;5073623;28;20063;-77
2021/05/24 05:47:54;;;;;;;6.30;1.67;;;;;;;10.85;83.47;99584.34;5055125;28;20559;-77
2021/05/24 05:50:20;;;;;;;4.22;1.73;;;;;;;10.95;81.47;99581.31;5043084;28;20036;-77
2021/05/24 05:52:45;;;;;;;10.20;1.98;;;;;;;11.11;81.27;99585.28;5041863;28;20036;-77
2021/05/24 05:55:11;;;;;;;8.93;1.70;;;;;;;11.27;80.54;99591.25;5061959;28;20032;-77
2021/05/24 05:57:36;;;;;;;10.40;1.92;;;;;;;11.45;81.26;99596.88;5018994;28;20503;-77
2021/05/24 06:00:04;;;;;;;9.60;2.13;;;;;;;11.62;80.50;99600.53;5069766;28;20032;-77
2021/05/24 06:02:29;;;;;;;10.25;2.38;;;;;;;11.76;79.54;99589.28;5079841;28;20024;-78
2021/05/24 06:04:55;;;;;;;8.95;2.20;;;;;;;11.93;78.84;99601.63;5043926;28;20028;-77
2021/05/24 06:07:20;;;;;;;10.35;2.15;;;;;;;12.08;78.41;99596.38;5061942;28;20035;-77
2021/05/24 06:09:46;;;;;;;10.05;2.00;;;;;;;12.25;77.93;99595.56;5081817;28;20073;-77
2021/05/24 06:12:11;;;;;;;7.10;2.00;;;;;;;12.42;77.11;99591.94;5058431;28;20108;-77
2021/05/24 06:14:37;;;;;;;5.78;1.77;;;;;;;12.60;76.69;99595.53;5027821;28;20037;-78
2021/05/24 06:17:06;;;;;;;8.63;1.98;;;;;;;12.77;75.97;99599.47;5071431;28;20056;-78
2021/05/24 06:19:32;;;;;;;11.32;2.30;;;;;;;12.94;75.39;99600.22;5061025;28;20033;-77
2021/05/24 06:21:57;;;;;;;9.00;2.15;;;;;;;13.14;74.89;99597.88;5068736;28;20041;-77
2021/05/24 06:24:23;;;;;;;8.95;2.47;;;;;;;13.31;74.36;99600.59;5049201;28;20561;-77
2021/05/24 06:26:48;;;;;;;7.63;1.90;;;;;;;13.48;74.28;99596.09;5053277;28;20035;-77
2021/05/24 06:29:21;;;;;;;7.88;2.30;;;;;;;13.64;73.79;99598.00;5090554;28;20025;-77
2021/05/24 06:31:46;;;;;;;8.95;1.77;;;;;;;13.83;73.60;99607.91;5068528;28;20021;-78
2021/05/24 06:34:12;;;;;;;8.90;1.90;;;;;;;14.02;72.73;99610.25;5055988;28;20089;-78
2021/05/24 06:36:37;;;;;;;12.48;2.45;;;;;;;14.18;72.96;99607.66;5050144;28;20025;-78
2021/05/24 06:39:03;;;;;;;9.20;2.50;;;;;;;14.37;72.37;99599.63;5049424;28;20056;-78
2021/05/24 06:41:29;;;;;;;10.43;2.25;;;;;;;14.57;71.72;99591.59;5053755;28;20098;-78
2021/05/24 06:43:54;;;;;;;11.20;2.63;;;;;;;14.71;71.91;99592.94;5008362;28;20366;-78
2021/05/24 06:46:20;;;;;;;8.88;2.17;;;;;;;14.91;71.14;99594.03;5017626;28;20036;-79
2021/05/24 06:48:45;;;;;;;9.60;2.30;;;;;;;15.09;71.07;99583.47;5033997;28;20025;-78
2021/05/24 06:51:11;;;;;;;6.50;1.70;;;;;;;15.24;69.80;99581.16;5005191;28;20033;-77
2021/05/24 06:53:36;;;;;;;12.27;2.53;;;;;;;15.42;69.11;99588.19;5035326;28;20478;-78
2021/05/24 06:56:02;;;;;;;9.32;2.35;;;;;;;15.49;69.25;99598.78;5034688;28;20033;-77
2021/05/24 06:58:40;;;;;;;11.27;2.60;;;;;;;15.59;68.97;99593.53;5002360;28;20025;-77
2021/05/24 07:01:06;;;;;;;12.07;2.58;;;;;;;15.64;68.61;99593.31;4985076;28;20120;-78
2021/05/24 07:03:44;;;;;;;12.73;2.78;;;;;;;15.73;68.37;99592.41;5034688;28;20056;-78
2021/05/24 07:06:10;;;;;;;13.95;2.78;;;;;;;15.79;68.34;99596.59;5004478;28;20033;-78
2021/05/24 07:08:41;;;;;;;14.15;3.05;;;;;;;15.80;68.53;99607.44;4986661;28;20116;-78
2021/05/24 07:11:18;;;;;;;13.70;3.03;;;;;;;15.78;68.56;99595.78;5003229;28;20022;-78
2021/05/24 07:13:43;;;;;;;18.10;2.97;;;;;;;15.78;68.85;99603.38;5034823;28;20045;-78
2021/05/24 07:16:09;;;;;;;16.88;3.28;;;;;;;15.75;68.79;99638.47;5016313;28;20046;-79
2021/05/24 07:18:34;;;;;;;15.45;2.55;;;;;;;15.65;69.23;99653.69;5029728;28;20034;-73
2021/05/24 07:21:00;;;;;;;18.50;3.55;;;;;;;15.61;69.28;99654.78;5016000;28;20096;-73
2021/05/24 07:23:25;;;;;;;20.48;2.97;;;;;;;15.44;69.39;99649.41;5018303;28;20033;-78
2021/05/24 07:25:52;;;;;;;24.83;12.98;;;;;;;15.27;69.43;99648.44;5002798;28;20022;-77
2021/05/24 07:28:18;;;;;;;28.60;16.25;;;;;;;15.10;69.29;99657.00;5032498;28;20056;-80
2021/05/24 07:30:44;;;;;;;24.85;13.60;;;;;;;14.91;68.81;99647.16;5002768;28;20017;-80
2021/05/24 07:33:09;;;;;;;18.42;11.20;;;;;;;14.73;69.32;99656.84;5024309;28;20481;-78
2021/05/24 07:35:35;;;;;;;14.85;7.38;;;;;;;14.49;69.61;99649.16;5036184;28;20458;-78
2021/05/24 07:38:01;;;;;;;16.70;5.70;;;;;;;14.30;69.37;99650.44;5010526;28;20052;-78
2021/05/24 07:40:27;;;;;;;9.55;3.15;;;;;;;14.09;69.19;99649.59;5047893;28;20059;-73
2021/05/24 07:42:52;;;;;;;10.40;3.50;;;;;;;13.84;69.81;99648.59;5052306;28;20060;-75
2021/05/24 07:45:18;;;;;;;12.05;2.85;;;;;;;13.73;71.12;99648.16;5058423;28;20037;-76
2021/05/24 07:47:43;;;;;;;6.38;2.13;;;;;;;13.57;72.00;99650.72;5067792;28;20623;-76
2021/05/24 07:50:09;;;;;;;8.95;1.92;;;;;;;13.39;73.07;99658.31;5049253;28;20063;-76
2021/05/24 07:52:35;;;;;;;7.05;1.35;;;;;;;13.14;74.04;99643.28;5049308;28;20033;-76
2021/05/24 07:55:02;;;;;;;9.68;1.88;;;;;;;13.20;74.13;99655.06;5061558;28;20037;-75
2021/05/24 07:57:27;;;;;;;8.85;1.70;;;;;;;13.11;75.49;99643.13;5023236;28;20104;-75
2021/05/24 07:59:53;;;;;;;4.60;1.45;;;;;;;13.08;74.73;99639.03;5054078;28;20115;-75
2021/05/24 08:02:18;;;;;;;7.82;1.90;;;;;;;13.02;76.12;99636.78;5055101;28;20021;-75
2021/05/24 08:04:44;;;;;;;8.65;1.80;;;;;;;13.02;76.18;99639.56;5026506;28;20037;-76
2021/05/24 08:07:09;;;;;;;8.82;1.50;;;;;;;13.02;76.53;99645.13;5030924;28;20024;-75
2021/05/24 08:09:35;;;;;;;4.75;1.60;;;;;;;13.02;77.26;99640.38;5008912;28;20037;-75
2021/05/24 08:12:00;;;;;;;7.97;1.77;;;;;;;13.05;77.95;99644.47;5066171;28;20033;-75
2021/05/24 08:14:26;;;;;;;7.82;1.70;;;;;;;13.09;78.08;99649.06;5039001;28;20029;-75
2021/05/24 08:16:52;;;;;;;5.18;1.63;;;;;;;13.18;77.20;99643.47;5004458;28;20442;-76
2021/05/24 08:19:18;;;;;;;6.55;1.75;;;;;;;13.32;76.52;99640.50;5018973;28;20029;-76
2021/05/24 08:21:45;;;;;;;8.20;1.70;;;;;;;13.51;76.54;99640.91;5055092;28;20393;-76
2021/05/24 08:24:11;;;;;;;6.78;1.58;;;;;;;13.73;76.54;99642.59;5008358;28;20040;-76
2021/05/24 08:26:37;;;;;;;8.43;1.50;;;;;;;13.95;76.52;99644.25;5004356;28;20090;-76
2021/05/24 08:29:03;;;;;;;8.00;1.33;;;;;;;14.18;75.27;99646.75;5008397;28;20038;-76
2021/05/24 08:31:28;;;;;;;6.22;1.50;;;;;;;14.38;74.72;99645.97;5003960;28;20500;-76
2021/05/24 08:33:54;;;;;;;7.32;1.60;;;;;;;14.61;74.01;99638.06;4990000;28;20033;-76
2021/05/24 08:36:19;;;;;;;6.38;1.55;;;;;;;14.85;72.93;99636.53;4979619;28;20033;-75
2021/05/24 08:38:45;;;;;;;6.68;1.80;;;;;;;15.11;72.78;99628.69;5019362;28;20040;-76
2021/05/24 08:41:10;;;;;;;5.75;1.42;;;;;;;15.33;72.46;99624.66;5006226;28;20025;-75
2021/05/24 08:43:37;;;;;;;6.03;1.45;;;;;;;15.58;71.68;99619.09;5005570;28;20029;-75
2021/05/24 08:46:03;;;;;;;7.00;1.30;;;;;;;15.80;70.95;99615.84;5036175;28;20029;-77
2021/05/24 08:48:28;;;;;;;4.35;1.15;;;;;;;16.01;69.97;99607.28;5011305;28;20029;-78
2021/05/24 08:50:54;;;;;;;4.88;0.70;;;;;;;16.25;69.77;99603.63;5018443;28;20564;-77
2021/05/24 08:53:20;;;;;;;4.35;1.20;;;;;;;16.45;69.37;99607.41;5006697;28;20535;-78
2021/05/24 08:55:46;;;;;;;3.05;0.77;;;;;;;16.65;68.87;99614.00;5023627;28;20115;-77
2021/05/24 08:58:12;;;;;;;2.65;0.93;;;;;;;16.89;68.22;99603.88;5063247;28;20029;-78
2021/05/24 09:00:38;;;;;;;5.38;0.93;;;;;;;17.12;67.64;99613.31;5051405;28;20025;-78
2021/05/24 09:03:03;;;;;;;4.00;1.10;;;;;;;17.36;66.88;99614.34;5004603;28;20429;-77
2021/05/24 09:05:31;;;;;;;4.82;0.85;;;;;;;17.55;66.07;99608.84;5014572;28;20037;-77
2021/05/24 09:08:02;;;;;;;5.00;0.98;;;;;;;17.73;65.75;99606.44;5006024;28;20435;-77
2021/05/24 09:10:28;;;;;;;6.40;0.82;;;;;;;17.94;65.21;99616.59;4994298;28;20112;-78
2021/05/24 09:12:55;;;;;;;5.05;0.90;;;;;;;18.11;64.95;99616.22;5066954;28;20029;-78
2021/05/24 09:15:21;;;;;;;4.57;1.23;;;;;;;18.27;64.27;99624.56;5015999;28;20478;-78
2021/05/24 09:17:53;;;;;;;7.00;1.23;;;;;;;18.50;63.90;99622.69;5036503;28;20028;-77
2021/05/24 09:20:25;;;;;;;5.03;0.88;;;;;;;18.68;63.13;99625.88;5013666;28;20034;-78
2021/05/24 09:23:10;;;;;;;4.10;0.98;;;;;;;18.88;61.99;99628.69;5053425;28;20036;-78
2021/05/24 09:25:56;;;;;;;3.53;0.70;;;;;;;19.05;61.87;99635.88;5066487;28;20108;-77
2021/05/24 09:28:41;;;;;;;3.42;1.10;;;;;;;19.24;60.78;99630.19;5069069;28;20040;-77
2021/05/24 09:31:18;;;;;;;5.55;0.93;;;;;;;19.40;60.06;99624.47;5036623;28;20056;-78
2021/05/24 09:33:48;;;;;;;7.57;1.30;;;;;;;19.51;59.78;99635.91;5042054;28;20040;-78
2021/05/24 09:36:14;;;;;;;4.53;1.00;;;;;;;19.56;58.84;99635.59;5034482;28;20037;-77
2021/05/24 09:38:48;;;;;;;5.22;0.90;;;;;;;19.62;58.48;99631.28;5046894;28;20096;-78
2021/05/24 09:41:16;;;;;;;6.15;0.98;;;;;;;19.68;58.05;99629.78;5028836;28;20091;-78
2021/05/24 09:43:46;;;;;;;5.45;0.95;;;;;;;19.72;57.78;99621.41;5046969;28;20087;-76
2021/05/24 09:46:25;;;;;;;8.57;1.00;;;;;;;19.67;57.25;99627.34;5047332;28;21043;-76
2021/05/24 09:48:52;;;;;;;4.30;1.00;;;;;;;19.66;57.29;99628.53;5057244;28;20036;-77
2021/05/24 09:51:20;;;;;;;7.05;1.05;;;;;;;19.68;57.86;99629.78;5021674;28;20028;-75
2021/05/24 09:54:03;;;;;;;7.40;1.60;;;;;;;19.77;58.25;99630.34;5026765;28;20053;-75
2021/05/24 09:56:30;;;;;;;6.10;1.13;;;;;;;19.87;58.70;99617.63;5054526;28;20061;-72
2021/05/24 09:59:00;;;;;;;9.98;1.85;;;;;;;19.90;58.93;99633.78;5049524;28;20037;-71
2021/05/24 10:01:35;;;;;;;13.38;2.30;;;;;;;19.83;58.52;99622.38;5046316;28;20044;-71
2021/05/24 10:04:00;;;;;;;12.60;1.67;;;;;;;19.73;58.02;99629.50;5070150;28;20124;-72
2021/05/24 10:06:26;;;;;;;6.85;1.92;;;;;;;19.69;57.40;99622.97;5019746;28;20474;-71
2021/05/24 10:08:52;;;;;;;11.50;1.70;;;;;;;19.67;57.65;99631.00;5022225;28;20385;-72
2021/05/24 10:11:17;;;;;;;7.43;1.75;;;;;;;19.67;57.32;99624.53;5037451;28;20023;-71
2021/05/24 10:13:43;;;;;;;10.25;1.73;;;;;;;19.52;57.37;99621.44;5006920;28;20049;-72
2021/05/24 10:16:12;;;;;;;6.30;1.40;;;;;;;19.49;56.57;99625.00;5037879;28;20025;-71
2021/05/24 10:18:38;;;;;;;11.05;1.98;;;;;;;19.50;56.75;99621.03;5054320;28;20111;-71
2021/05/24 10:21:04;;;;;;;7.13;1.45;;;;;;;19.46;56.69;99613.69;5019672;28;20103;-72
2021/05/24 10:23:29;;;;;;;7.82;0.90;;;;;;;19.48;56.59;99619.78;5041377;28;20037;-72
2021/05/24 10:25:58;;;;;;;9.57;1.45;;;;;;;19.47;56.54;99612.50;4989875;28;20029;-71
2021/05/24 10:28:27;;;;;;;7.40;1.38;;;;;;;19.55;56.33;99612.25;5054472;28;20041;-71
2021/05/24 10:30:56;;;;;;;6.93;1.50;;;;;;;19.64;56.51;99614.81;5007943;28;20029;-71
2021/05/24 10:33:26;;;;;;;6.35;1.30;;;;;;;19.73;56.71;99594.88;5013076;28;20032;-71
2021/05/24 10:35:51;;;;;;;6.40;1.55;;;;;;;19.84;56.54;99602.28;5029448;28;20029;-72
2021/05/24 10:38:27;;;;;;;6.97;1.33;;;;;;;19.84;56.08;99593.03;5039149;28;20370;-71
2021/05/24 10:41:16;;;;;;;10.40;1.17;;;;;;;19.79;55.84;99599.00;5012216;28;20033;-72
2021/05/24 10:43:42;;;;;;;6.78;1.40;;;;;;;19.69;55.90;99631.41;5014033;28;20116;-72
2021/05/24 10:46:26;;;;;;;6.63;1.35;;;;;;;19.50;55.65;99617.38;5011743;28;20030;-72
2021/05/24 10:48:58;;;;;;;8.73;1.38;;;;;;;19.33;55.66;99635.59;5051760;28;20030;-72
2021/05/24 10:51:45;;;;;;;8.37;1.40;;;;;;;18.96;55.59;99642.53;5001013;28;20037;-72
2021/05/24 10:54:12;;;;;;;7.38;1.10;;;;;;;18.69;56.23;99677.28;5017596;28;20362;-72
2021/05/24 10:56:43;;;;;;;6.38;1.00;;;;;;;18.37;56.60;99685.03;5019484;28;20394;-72
2021/05/24 10:59:37;;;;;;;6.05;1.20;;;;;;;17.98;57.66;99698.97;5002333;28;20033;-77
2021/05/24 11:02:08;;;;;;;8.50;1.23;;;;;;;17.51;58.92;99685.72;5007537;28;20033;-77
2021/05/24 11:05:30;;;;;;;8.63;4.10;;;;;;;17.22;59.11;99673.72;4986980;28;20026;-76
2021/05/24 11:08:01;;;;;;;8.13;2.08;;;;;;;16.77;59.65;99655.25;5014697;28;20038;-77
2021/05/24 11:10:31;;;;;;;4.35;1.20;;;;;;;16.44;60.21;99652.63;4998620;28;20045;-76
2021/05/24 11:13:17;;;;;;;6.65;1.30;;;;;;;16.22;60.46;99653.97;5022339;28;20129;-77
2021/05/24 11:15:46;;;;;;;5.20;0.80;;;;;;;15.90;61.59;99666.94;5007312;28;20213;-73
2021/05/24 11:18:15;;;;;;;3.13;0.80;;;;;;;15.60;62.18;99662.34;5012633;28;20042;-73
2021/05/24 11:21:01;;;;;;;5.47;1.17;;;;;;;15.48;63.09;99681.09;5008727;28;20034;-75
2021/05/24 11:23:36;;;;;;;5.53;1.23;;;;;;;15.19;64.40;99678.13;5022438;28;20101;-72
2021/05/24 11:26:32;;;;;;;4.53;0.82;;;;;;;15.10;66.86;99682.16;4982846;28;20061;-73
2021/05/24 11:29:07;;;;;;;3.40;0.80;;;;;;;15.07;68.44;99682.84;5005403;28;20450;-77
2021/05/24 11:31:36;;;;;;;12.07;4.28;;;;;;;15.12;69.14;99685.44;4961994;28;20034;-76
2021/05/24 11:34:04;;;;;;;14.23;5.43;;;;;;;15.25;69.61;99684.31;5003416;28;20025;-78